createdAt,value
2019-01-18T00:02:16.653Z,96.90
2019-01-18T00:04:44.009Z,96.90
2019-01-18T00:07:11.381Z,96.90
2019-01-18T00:09:38.707Z,96.90
2019-01-18T00:12:05.950Z,96.90
2019-01-18T00:14:33.299Z,96.90
2019-01-18T00:17:00.866Z,96.90
2019-01-18T00:19:28.207Z,96.90
2019-01-18T00:21:55.445Z,96.80
2019-01-18T00:24:22.849Z,96.80
2019-01-18T00:26:50.087Z,96.80
2019-01-18T00:29:17.445Z,96.80
2019-01-18T00:31:44.657Z,96.80
2019-01-18T00:34:12.029Z,96.70
2019-01-18T00:36:39.339Z,96.70
2019-01-18T00:39:07.611Z,96.70
2019-01-18T00:41:34.937Z,96.70
2019-01-18T00:44:02.349Z,96.60
2019-01-18T00:46:29.703Z,96.60
2019-01-18T00:48:57.089Z,96.70
2019-01-18T00:51:24.450Z,96.70
2019-01-18T00:53:51.774Z,96.80
2019-01-18T00:56:19.118Z,96.80
2019-01-18T00:58:46.497Z,96.90
2019-01-18T01:01:13.816Z,96.90
2019-01-18T01:03:41.145Z,97.00
2019-01-18T01:06:08.485Z,97.00
2019-01-18T01:08:35.698Z,97.00
2019-01-18T01:11:03.043Z,97.10
2019-01-18T01:13:30.292Z,97.10
2019-01-18T01:15:57.605Z,97.10
2019-01-18T01:18:24.986Z,97.10
2019-01-18T01:20:52.326Z,97.00
2019-01-18T01:23:19.670Z,97.10
2019-01-18T01:25:46.995Z,97.00
2019-01-18T01:28:14.404Z,97.10
2019-01-18T01:30:42.330Z,97.10
2019-01-18T01:33:09.692Z,97.10
2019-01-18T01:35:36.929Z,97.10
2019-01-18T01:38:04.444Z,97.10
2019-01-18T01:40:31.656Z,97.10
2019-01-18T01:42:58.914Z,97.20
2019-01-18T01:45:26.222Z,97.20
2019-01-18T01:47:53.580Z,97.20
2019-01-18T01:50:22.857Z,97.30
2019-01-18T01:52:50.463Z,97.30
2019-01-18T01:55:18.085Z,97.30
2019-01-18T01:57:45.390Z,97.40
2019-01-18T02:00:15.249Z,97.40
2019-01-18T02:02:42.440Z,97.40
2019-01-18T02:05:09.856Z,97.40
2019-01-18T02:07:37.098Z,97.40
2019-01-18T02:10:05.496Z,97.40
2019-01-18T02:12:32.874Z,97.40
2019-01-18T02:15:00.296Z,97.40
2019-01-18T02:17:27.622Z,97.50
2019-01-18T02:19:54.963Z,97.50
2019-01-18T02:22:22.392Z,97.50
2019-01-18T02:24:49.750Z,97.60
2019-01-18T02:27:17.083Z,97.60
2019-01-18T02:29:44.343Z,97.60
2019-01-18T02:32:11.640Z,97.60
2019-01-18T02:34:39.048Z,97.60
2019-01-18T02:37:06.535Z,97.60
2019-01-18T02:39:33.961Z,97.60
2019-01-18T02:42:01.282Z,97.60
2019-01-18T02:44:28.524Z,97.60
2019-01-18T02:46:55.768Z,97.70
2019-01-18T02:49:23.146Z,97.70
2019-01-18T02:51:50.504Z,97.70
2019-01-18T02:54:17.894Z,97.80
2019-01-18T02:56:45.240Z,97.80
2019-01-18T02:59:12.474Z,97.80
2019-01-18T03:01:39.849Z,97.80
2019-01-18T03:04:07.198Z,97.80
2019-01-18T03:06:34.614Z,97.70
2019-01-18T03:09:04.812Z,97.80
2019-01-18T03:11:32.160Z,97.80
2019-01-18T03:13:59.387Z,97.80
2019-01-18T03:16:26.632Z,97.80
2019-01-18T03:18:53.936Z,97.80
2019-01-18T03:21:21.245Z,97.80
2019-01-18T03:23:48.600Z,97.80
2019-01-18T03:26:15.982Z,97.80
2019-01-18T03:28:43.483Z,97.80
2019-01-18T03:31:10.827Z,97.70
2019-01-18T03:33:38.178Z,97.80
2019-01-18T03:36:05.421Z,97.70
2019-01-18T03:38:32.753Z,97.70
2019-01-18T03:41:00.067Z,97.70
2019-01-18T03:43:27.429Z,97.60
2019-01-18T03:45:54.762Z,97.70
2019-01-18T03:48:22.393Z,97.60
2019-01-18T03:50:50.034Z,97.50
2019-01-18T03:53:17.298Z,97.50
2019-01-18T03:55:44.670Z,97.40
2019-01-18T03:58:12.035Z,97.40
2019-01-18T04:00:39.466Z,97.30
2019-01-18T04:03:06.786Z,97.20
2019-01-18T04:05:34.109Z,97.20
2019-01-18T04:08:01.363Z,97.20
2019-01-18T04:10:28.599Z,97.10
2019-01-18T04:12:55.906Z,96.90
2019-01-18T04:15:23.713Z,96.90
2019-01-18T04:17:51.122Z,96.90
2019-01-18T04:20:19.538Z,96.90
2019-01-18T04:22:46.939Z,96.80
2019-01-18T04:25:22.617Z,97.00
2019-01-18T04:27:49.843Z,96.60
2019-01-18T04:30:18.541Z,96.40
2019-01-18T04:32:45.924Z,96.40
2019-01-18T04:35:13.457Z,96.20
2019-01-18T04:37:40.811Z,96.10
2019-01-18T04:40:16.105Z,96.00
2019-01-18T04:42:43.439Z,96.00
2019-01-18T04:45:10.809Z,95.90
2019-01-18T04:47:38.227Z,95.90
2019-01-18T04:50:07.823Z,95.70
2019-01-18T04:52:35.153Z,95.70
2019-01-18T04:55:02.727Z,95.70
2019-01-18T04:57:30.177Z,95.40
2019-01-18T04:59:57.554Z,95.30
2019-01-18T05:02:24.888Z,95.30
2019-01-18T05:04:52.218Z,95.20
2019-01-18T05:07:19.560Z,95.20
2019-01-18T05:09:46.890Z,95.50
2019-01-18T05:12:14.258Z,95.10
2019-01-18T05:14:41.639Z,95.00
2019-01-18T05:17:09.045Z,94.90
2019-01-18T05:19:36.250Z,94.70
2019-01-18T05:22:03.507Z,94.70
2019-01-18T05:24:30.735Z,94.60
2019-01-18T05:26:58.087Z,94.50
2019-01-18T05:29:25.351Z,94.50
2019-01-18T05:31:52.949Z,94.50
2019-01-18T05:34:20.413Z,94.50
2019-01-18T05:36:47.802Z,94.50
2019-01-18T05:39:15.316Z,94.50
2019-01-18T05:41:42.673Z,94.50
2019-01-18T05:44:10.001Z,94.50
2019-01-18T05:46:37.314Z,94.60
2019-01-18T05:49:07.254Z,94.60
2019-01-18T05:51:34.605Z,94.60
2019-01-18T05:54:01.939Z,94.60
2019-01-18T05:56:29.160Z,94.60
2019-01-18T05:58:56.522Z,94.60
2019-01-18T06:01:23.824Z,94.50
2019-01-18T06:03:51.286Z,94.50
2019-01-18T06:06:18.613Z,94.40
2019-01-18T06:08:45.956Z,94.40
2019-01-18T06:11:13.303Z,94.40
2019-01-18T06:13:40.659Z,94.40
2019-01-18T06:16:08.029Z,94.30
2019-01-18T06:18:35.357Z,94.40
2019-01-18T06:21:02.678Z,94.40
2019-01-18T06:23:29.912Z,94.40
2019-01-18T06:25:57.283Z,94.40
2019-01-18T06:28:24.509Z,94.40
2019-01-18T06:30:51.895Z,94.40
2019-01-18T06:33:19.225Z,94.40
2019-01-18T06:35:46.561Z,94.40
2019-01-18T06:38:13.893Z,94.40
2019-01-18T06:40:41.966Z,94.40
2019-01-18T06:43:09.311Z,94.30
2019-01-18T06:45:36.579Z,94.30
2019-01-18T06:48:04.267Z,94.30
2019-01-18T06:50:31.633Z,94.30
2019-01-18T06:52:58.958Z,94.30
2019-01-18T06:55:26.367Z,94.40
2019-01-18T06:57:53.727Z,94.50
2019-01-18T07:00:26.461Z,94.50
2019-01-18T07:02:53.801Z,94.50
2019-01-18T07:05:21.140Z,94.50
2019-01-18T07:07:48.358Z,94.50
2019-01-18T07:10:20.705Z,94.40
2019-01-18T07:12:45.885Z,94.40
2019-01-18T07:15:13.345Z,94.20
2019-01-18T07:17:40.589Z,94.20
2019-01-18T07:20:10.237Z,94.10
2019-01-18T07:22:37.438Z,94.30
2019-01-18T07:25:06.771Z,94.40
2019-01-18T07:27:34.086Z,94.40
2019-01-18T07:30:01.352Z,94.30
2019-01-18T07:32:28.685Z,94.30
2019-01-18T07:34:56.035Z,94.20
2019-01-18T07:37:23.386Z,94.30
2019-01-18T07:39:52.575Z,94.30
2019-01-18T07:42:19.965Z,94.30
2019-01-18T07:44:47.297Z,94.40
2019-01-18T07:47:14.519Z,94.50
2019-01-18T07:49:41.843Z,94.60
2019-01-18T07:52:09.164Z,94.50
2019-01-18T07:54:36.373Z,94.60
2019-01-18T07:57:03.633Z,94.60
2019-01-18T07:59:30.979Z,94.60
2019-01-18T08:01:58.299Z,94.70
2019-01-18T08:04:25.666Z,94.70
2019-01-18T08:06:53.017Z,94.70
2019-01-18T08:09:20.232Z,94.70
2019-01-18T08:11:47.465Z,94.70
2019-01-18T08:14:14.784Z,94.70
2019-01-18T08:16:43.547Z,94.60
2019-01-18T08:19:10.977Z,94.60
2019-01-18T08:21:38.295Z,94.70
2019-01-18T08:24:05.536Z,94.60
2019-01-18T08:26:32.764Z,94.60
2019-01-18T08:29:00.095Z,94.70
2019-01-18T08:31:29.026Z,94.80
2019-01-18T08:33:56.660Z,94.80
2019-01-18T08:36:24.062Z,94.80
2019-01-18T08:38:51.385Z,94.80
2019-01-18T08:41:18.608Z,94.70
2019-01-18T08:43:45.861Z,94.70
2019-01-18T08:46:14.352Z,94.60
2019-01-18T08:48:41.700Z,94.90
2019-01-18T08:51:09.004Z,94.40
2019-01-18T08:53:36.240Z,94.30
2019-01-18T08:56:05.504Z,94.20
2019-01-18T08:58:32.820Z,94.10
2019-01-18T09:01:00.136Z,94.00
2019-01-18T09:03:27.544Z,93.80
2019-01-18T09:05:55.003Z,93.60
2019-01-18T09:08:22.314Z,93.20
2019-01-18T09:10:49.508Z,92.70
2019-01-18T09:13:16.863Z,92.50
2019-01-18T09:15:44.178Z,91.50
2019-01-18T09:18:11.396Z,90.70
2019-01-18T09:20:38.713Z,89.50
2019-01-18T09:23:06.111Z,85.70
2019-01-18T09:25:35.236Z,79.60
2019-01-18T09:28:02.470Z,72.70
2019-01-18T09:30:32.236Z,66.90
2019-01-18T09:32:59.840Z,61.00
2019-01-18T09:35:27.093Z,57.30
2019-01-18T09:37:55.772Z,53.80
2019-01-18T09:40:25.202Z,51.70
2019-01-18T09:42:52.392Z,48.60
2019-01-18T09:45:19.708Z,45.00
2019-01-18T09:47:46.904Z,43.80
2019-01-18T09:50:19.300Z,42.90
2019-01-18T09:52:46.941Z,41.40
2019-01-18T09:55:14.172Z,40.60
2019-01-18T09:57:41.560Z,39.50
2019-01-18T10:00:13.644Z,38.90
2019-01-18T10:02:40.920Z,38.30
2019-01-18T10:05:08.858Z,38.30
2019-01-18T10:07:36.100Z,39.00
2019-01-18T10:10:04.964Z,38.60
2019-01-18T10:12:32.318Z,37.40
2019-01-18T10:14:59.659Z,38.90
2019-01-18T10:17:29.512Z,38.20
2019-01-18T10:19:56.813Z,38.20
2019-01-18T10:22:24.144Z,37.80
2019-01-18T10:24:51.496Z,37.20
2019-01-18T10:27:23.868Z,36.60
2019-01-18T10:29:47.970Z,36.00
2019-01-18T10:32:15.324Z,35.50
2019-01-18T10:34:42.622Z,35.50
2019-01-18T10:37:09.942Z,36.00
2019-01-18T10:39:37.248Z,36.60
2019-01-18T10:42:04.580Z,36.30
2019-01-18T10:44:31.891Z,35.80
2019-01-18T10:46:59.156Z,35.60
2019-01-18T10:49:26.563Z,35.70
2019-01-18T10:51:53.972Z,35.40
2019-01-18T10:54:21.331Z,35.20
2019-01-18T10:56:48.529Z,34.50
2019-01-18T10:59:15.872Z,34.50
2019-01-18T11:01:43.068Z,33.90
2019-01-18T11:04:11.157Z,34.20
2019-01-18T11:06:38.555Z,34.40
2019-01-18T11:09:08.443Z,35.10
2019-01-18T11:11:35.737Z,35.60
2019-01-18T11:14:03.075Z,35.40
2019-01-18T11:16:33.281Z,34.00
2019-01-18T11:19:00.730Z,34.30
2019-01-18T11:21:28.112Z,34.90
2019-01-18T11:23:55.439Z,34.50
2019-01-18T11:26:22.797Z,34.20
2019-01-18T11:28:50.136Z,33.80
2019-01-18T11:31:17.448Z,33.50
2019-01-18T11:33:44.822Z,33.60
2019-01-18T11:36:12.132Z,35.00
2019-01-18T11:38:39.461Z,35.70
2019-01-18T11:41:06.794Z,37.00
2019-01-18T11:43:34.099Z,37.00
2019-01-18T11:46:01.426Z,36.70
2019-01-18T11:48:28.781Z,36.10
2019-01-18T11:50:56.137Z,35.60
2019-01-18T11:53:23.591Z,35.60
2019-01-18T11:55:50.959Z,35.80
2019-01-18T11:58:18.277Z,36.20
2019-01-18T12:00:45.621Z,35.90
2019-01-18T12:03:12.941Z,35.40
2019-01-18T12:05:40.241Z,35.20
2019-01-18T12:08:07.651Z,34.90
2019-01-18T12:10:35.021Z,35.40
2019-01-18T12:13:02.530Z,35.00
2019-01-18T12:15:29.995Z,34.90
2019-01-18T12:17:57.391Z,35.30
2019-01-18T12:20:33.031Z,35.40
2019-01-18T12:23:00.487Z,36.30
2019-01-18T12:25:27.787Z,36.30
2019-01-18T12:27:55.311Z,36.80
2019-01-18T12:30:27.998Z,37.30
2019-01-18T12:32:55.317Z,38.40
2019-01-18T12:35:22.623Z,39.50
2019-01-18T12:37:49.945Z,40.50
2019-01-18T12:40:17.273Z,42.90
2019-01-18T12:42:44.591Z,45.30
2019-01-18T12:45:14.565Z,46.90
2019-01-18T12:47:41.808Z,49.20
2019-01-18T12:50:13.611Z,51.00
2019-01-18T12:52:40.938Z,52.60
2019-01-18T12:55:08.257Z,54.00
2019-01-18T12:57:35.580Z,55.20
2019-01-18T13:00:05.247Z,56.20
2019-01-18T13:02:35.474Z,57.10
2019-01-18T13:05:02.115Z,57.30
2019-01-18T13:07:29.349Z,57.50
2019-01-18T13:09:56.660Z,57.80
2019-01-18T13:12:24.119Z,57.80
2019-01-18T13:14:51.368Z,58.30
2019-01-18T13:17:18.608Z,58.90
2019-01-18T13:19:45.952Z,59.70
2019-01-18T13:22:13.283Z,60.20
2019-01-18T13:24:40.628Z,60.70
2019-01-18T13:27:07.986Z,60.90
2019-01-18T13:29:35.248Z,61.00
2019-01-18T13:32:02.579Z,61.20
2019-01-18T13:34:30.358Z,61.40
2019-01-18T13:36:57.894Z,61.50
2019-01-18T13:39:25.320Z,61.80
2019-01-18T13:41:52.662Z,62.20
2019-01-18T13:44:19.979Z,62.10
2019-01-18T13:46:47.224Z,62.10
2019-01-18T13:49:14.447Z,62.70
2019-01-18T13:51:46.142Z,63.10
2019-01-18T13:54:10.952Z,63.60
2019-01-18T13:56:38.370Z,63.50
2019-01-18T13:59:05.778Z,63.20
2019-01-18T14:01:33.123Z,63.30
2019-01-18T14:04:01.510Z,63.70
2019-01-18T14:06:28.925Z,64.10
2019-01-18T14:08:56.386Z,64.60
2019-01-18T14:11:23.802Z,64.70
2019-01-18T14:13:51.007Z,64.80
2019-01-18T14:16:18.289Z,65.00
2019-01-18T14:18:45.504Z,65.20
2019-01-18T14:21:13.032Z,65.30
2019-01-18T14:23:40.425Z,65.60
2019-01-18T14:26:07.948Z,65.60
2019-01-18T14:28:35.272Z,65.60
2019-01-18T14:31:02.520Z,65.70
2019-01-18T14:33:29.824Z,65.90
2019-01-18T14:35:57.144Z,66.20
2019-01-18T14:38:25.232Z,66.60
2019-01-18T14:40:52.590Z,66.90
2019-01-18T14:43:22.396Z,67.20
2019-01-18T14:45:49.718Z,67.60
2019-01-18T14:48:17.034Z,68.20
2019-01-18T14:50:43.970Z,68.70
2019-01-18T14:53:11.382Z,69.10
2019-01-18T14:55:38.710Z,69.50
2019-01-18T14:58:08.584Z,69.80
2019-01-18T15:00:38.260Z,70.00
2019-01-18T15:03:05.582Z,70.30
2019-01-18T15:05:32.923Z,70.20
2019-01-18T15:08:00.293Z,70.60
2019-01-18T15:10:27.619Z,70.40
2019-01-18T15:12:57.796Z,70.70
2019-01-18T15:15:25.111Z,70.70
2019-01-18T15:17:52.422Z,70.90
2019-01-18T15:20:21.925Z,71.10
2019-01-18T15:22:49.381Z,71.10
2019-01-18T15:25:16.710Z,71.00
2019-01-18T15:27:44.142Z,71.00
2019-01-18T15:30:16.717Z,70.90
2019-01-18T15:32:44.073Z,70.80
2019-01-18T15:35:13.569Z,70.70
2019-01-18T15:37:40.998Z,70.90
2019-01-18T15:40:10.372Z,71.70
2019-01-18T15:42:37.719Z,73.00
2019-01-18T15:45:05.597Z,74.30
2019-01-18T15:47:32.987Z,75.70
2019-01-18T15:50:00.365Z,76.50
2019-01-18T15:52:27.647Z,77.20
2019-01-18T15:54:55.003Z,77.80
2019-01-18T15:57:22.242Z,78.70
2019-01-18T15:59:49.453Z,79.40
2019-01-18T16:02:16.783Z,80.10
2019-01-18T16:04:44.125Z,81.00
2019-01-18T16:07:11.571Z,81.50
2019-01-18T16:09:38.933Z,82.00
2019-01-18T16:12:06.219Z,82.30
2019-01-18T16:14:33.456Z,83.00
2019-01-18T16:17:14.037Z,83.50
2019-01-18T16:19:41.373Z,83.80
2019-01-18T16:22:08.714Z,84.40
2019-01-18T16:24:36.065Z,84.80
2019-01-18T16:27:03.505Z,85.40
2019-01-18T16:29:30.897Z,86.00
2019-01-18T16:31:58.191Z,86.50
2019-01-18T16:34:25.588Z,87.10
2019-01-18T16:36:53.029Z,87.50
2019-01-18T16:39:20.441Z,87.60
2019-01-18T16:41:47.812Z,87.70
2019-01-18T16:44:15.165Z,87.70
2019-01-18T16:46:42.481Z,87.80
2019-01-18T16:49:09.746Z,88.50
2019-01-18T16:51:37.137Z,87.70
2019-01-18T16:54:04.523Z,87.80
2019-01-18T16:56:31.737Z,87.80
2019-01-18T16:58:59.087Z,87.80
2019-01-18T17:01:26.422Z,87.80
2019-01-18T17:03:53.873Z,88.10
2019-01-18T17:06:21.245Z,88.20
2019-01-18T17:08:48.461Z,88.60
2019-01-18T17:11:15.725Z,88.80
2019-01-18T17:13:52.681Z,89.30
2019-01-18T17:16:19.921Z,89.40
2019-01-18T17:18:47.742Z,89.70
2019-01-18T17:21:14.984Z,90.10
2019-01-18T17:23:42.165Z,90.20
2019-01-18T17:26:09.523Z,90.40
2019-01-18T17:28:36.897Z,90.50
2019-01-18T17:31:04.217Z,90.70
2019-01-18T17:33:36.710Z,90.80
2019-01-18T17:36:23.481Z,90.90
2019-01-18T17:39:26.297Z,90.90
2019-01-18T17:42:07.821Z,91.10
2019-01-18T17:45:08.201Z,91.30
2019-01-18T17:47:57.405Z,91.40
2019-01-18T17:50:56.190Z,91.40
2019-01-18T17:54:01.163Z,91.40
2019-01-18T17:57:09.187Z,91.40
2019-01-18T18:00:30.563Z,91.50
2019-01-18T18:03:36.633Z,91.50
2019-01-18T18:06:41.513Z,91.50
2019-01-18T18:09:27.594Z,91.50
2019-01-18T18:12:28.917Z,91.50
2019-01-18T18:15:20.030Z,91.60
2019-01-18T18:18:30.921Z,91.70
2019-01-18T18:21:31.004Z,91.70
2019-01-18T18:24:38.189Z,91.60
2019-01-18T18:27:52.416Z,91.70
2019-01-18T18:31:15.821Z,91.70
2019-01-18T18:34:21.157Z,91.60
2019-01-18T18:37:14.202Z,91.50
2019-01-18T18:40:14.584Z,91.50
2019-01-18T18:43:11.154Z,91.40
2019-01-18T18:46:06.541Z,91.50
2019-01-18T18:49:10.204Z,91.40
2019-01-18T18:52:13.500Z,91.60
2019-01-18T18:55:37.268Z,91.60
2019-01-18T18:58:26.288Z,91.60
2019-01-18T19:01:31.282Z,91.60
2019-01-18T19:04:24.156Z,91.80
2019-01-18T19:07:46.377Z,91.90
2019-01-18T19:10:45.773Z,91.90
2019-01-18T19:13:49.621Z,92.00
2019-01-18T19:16:55.711Z,92.00
2019-01-18T19:19:57.269Z,91.90
2019-01-18T19:23:09.503Z,91.90
2019-01-18T19:26:08.771Z,92.00
2019-01-18T19:29:29.983Z,92.00
2019-01-18T19:32:41.965Z,92.00
2019-01-18T19:35:47.369Z,92.10
2019-01-18T19:38:39.647Z,92.10
2019-01-18T19:41:37.956Z,92.10
2019-01-18T19:44:27.053Z,92.10
2019-01-18T19:47:36.818Z,92.10
2019-01-18T19:50:52.208Z,92.10
2019-01-18T19:53:47.962Z,92.20
2019-01-18T19:56:42.815Z,92.30
2019-01-18T19:59:45.352Z,92.30
2019-01-18T20:02:40.342Z,92.30
2019-01-18T20:05:51.644Z,92.40
2019-01-18T20:08:54.165Z,92.40
2019-01-18T20:12:09.201Z,92.40
2019-01-18T20:15:27.214Z,92.50
2019-01-18T20:18:39.203Z,93.00
2019-01-18T20:21:33.400Z,92.70
2019-01-18T20:24:53.125Z,92.70
2019-01-18T20:27:40.664Z,92.70
2019-01-18T20:30:58.603Z,92.70
2019-01-18T20:34:00.702Z,92.80
2019-01-18T20:36:51.226Z,92.90
2019-01-18T20:39:56.181Z,92.90
2019-01-18T20:42:50.764Z,93.00
2019-01-18T20:45:53.934Z,93.00
2019-01-18T20:48:48.344Z,93.10
2019-01-18T20:51:47.046Z,93.10
2019-01-18T20:54:35.369Z,93.10
2019-01-18T20:57:12.086Z,93.10
2019-01-18T21:00:05.688Z,93.20
2019-01-18T21:03:05.642Z,93.20
2019-01-18T21:06:10.826Z,93.20
2019-01-18T21:09:11.842Z,93.20
2019-01-18T21:12:02.370Z,93.40
2019-01-18T21:15:11.546Z,93.50
2019-01-18T21:18:16.740Z,93.60
2019-01-18T21:21:01.820Z,93.50
2019-01-18T21:24:20.990Z,93.40
2019-01-18T21:27:38.061Z,93.40
2019-01-18T21:30:47.356Z,93.40
2019-01-18T21:33:41.592Z,93.50
2019-01-18T21:36:17.910Z,93.90
2019-01-18T21:39:28.745Z,93.80
2019-01-18T21:42:33.602Z,93.90
2019-01-18T21:45:51.608Z,93.80
2019-01-18T21:49:02.328Z,94.00
2019-01-18T21:51:40.864Z,94.00
2019-01-18T21:54:56.684Z,94.00
2019-01-18T21:58:18.430Z,93.90
2019-01-18T22:01:28.851Z,93.90
2019-01-18T22:04:43.884Z,93.90
2019-01-18T22:07:45.035Z,93.90
2019-01-18T22:10:31.514Z,93.90
2019-01-18T22:13:14.325Z,93.90
2019-01-18T22:16:01.110Z,94.00
2019-01-18T22:19:01.360Z,94.10
2019-01-18T22:22:00.140Z,94.10
2019-01-18T22:25:01.548Z,94.20
2019-01-18T22:28:06.632Z,94.30
2019-01-18T22:31:18.904Z,94.30
2019-01-18T22:33:51.524Z,94.40
2019-01-18T22:37:21.908Z,94.50
2019-01-18T22:40:37.115Z,94.50
2019-01-18T22:43:46.126Z,94.70
2019-01-18T22:46:57.079Z,94.60
2019-01-18T22:50:12.320Z,94.70
2019-01-18T22:52:59.102Z,94.70
2019-01-18T22:55:56.952Z,94.70
2019-01-18T22:59:00.385Z,94.70
2019-01-18T23:01:54.161Z,94.70
2019-01-18T23:04:55.702Z,94.70
2019-01-18T23:08:20.176Z,94.70
2019-01-18T23:11:02.036Z,94.80
2019-01-18T23:14:09.654Z,94.70
2019-01-18T23:17:04.510Z,94.70
2019-01-18T23:19:48.661Z,94.70
2019-01-18T23:23:12.972Z,94.70
2019-01-18T23:26:23.524Z,94.70
2019-01-18T23:29:03.063Z,94.60
2019-01-18T23:32:09.213Z,94.60
2019-01-18T23:34:51.752Z,94.60
2019-01-18T23:37:36.401Z,94.60
2019-01-18T23:40:38.764Z,94.60
2019-01-18T23:43:24.912Z,94.60
2019-01-18T23:46:38.703Z,94.60
2019-01-18T23:49:37.456Z,94.60
2019-01-18T23:52:23.237Z,94.60
2019-01-18T23:55:34.076Z,94.50
2019-01-18T23:58:46.069Z,94.50
